Time;durP1;ratioP1;P1;durP2;ratioP2;P2;SDS_P1;SDS_P2;PMS_P1;PMS_P2;Temp;Humidity;BMP_temperature;BMP_pressure;BME280_temperature;BME280_humidity;BME280_pressure;Samples;Min_cycle;Max_cycle;Signal;HPM_P1;HPM_P2
2021/10/24 00:00:36;;;;;;;12.80;10.13;;;;;;;11.19;64.03;102630.66;6121531;23;20160;-65
2021/10/24 00:03:01;;;;;;;14.07;9.83;;;;;;;10.77;63.80;102563.81;6122594;23;20606;-65
2021/10/24 00:05:27;;;;;;;12.33;10.33;;;;;;;11.21;63.61;102631.06;6122513;23;20621;-65
2021/10/24 00:07:53;;;;;;;16.47;11.00;;;;;;;11.16;63.48;102636.97;6120493;23;20179;-65
2021/10/24 00:10:18;;;;;;;12.77;10.03;;;;;;;11.11;63.67;102631.78;6121606;23;20674;-65
2021/10/24 00:12:44;;;;;;;13.33;9.80;;;;;;;11.14;63.17;102638.53;6096177;23;20163;-65
2021/10/24 00:15:09;;;;;;;13.30;9.90;;;;;;;11.15;63.28;102646.50;6122905;23;20154;-65
2021/10/24 00:17:35;;;;;;;12.97;9.50;;;;;;;11.14;63.10;102633.81;6121651;23;20223;-65
2021/10/24 00:20:01;;;;;;;14.43;9.97;;;;;;;11.12;62.84;102638.94;6120134;23;20600;-65
2021/10/24 00:22:26;;;;;;;12.13;9.77;;;;;;;11.01;62.40;102617.88;6122406;23;20152;-65
2021/10/24 00:24:52;;;;;;;13.90;9.37;;;;;;;11.06;62.37;102636.94;6122099;23;20152;-65
2021/10/24 00:27:17;;;;;;;12.67;9.63;;;;;;;10.73;62.32;102614.91;6122239;23;20160;-65
2021/10/24 00:29:43;;;;;;;11.43;8.53;;;;;;;10.92;61.96;102634.06;6121004;23;20178;-65
2021/10/24 00:32:08;;;;;;;10.27;8.23;;;;;;;10.69;61.62;102612.09;6121085;23;20198;-63
2021/10/24 00:34:34;;;;;;;11.13;8.60;;;;;;;10.57;61.69;102600.53;6122074;23;20178;-65
2021/10/24 00:37:00;;;;;;;11.07;8.00;;;;;;;10.76;61.68;102637.09;6122131;23;20525;-65
2021/10/24 00:39:25;;;;;;;11.00;7.93;;;;;;;10.46;61.17;102592.13;6120400;23;20150;-65
2021/10/24 00:41:51;;;;;;;12.57;7.90;;;;;;;10.24;61.40;102564.63;6121166;23;20233;-65
2021/10/24 00:44:20;;;;;;;9.90;7.90;;;;;;;10.67;61.27;102638.63;6122198;23;20227;-65
2021/10/24 00:46:47;;;;;;;11.40;7.17;;;;;;;10.53;61.55;102638.50;6121950;23;20566;-65
2021/10/24 00:49:13;;;;;;;10.03;7.50;;;;;;;10.21;61.84;102590.34;6094987;23;20218;-65
2021/10/24 00:51:38;;;;;;;11.27;7.77;;;;;;;10.46;62.16;102635.69;6120445;23;20157;-65
2021/10/24 00:54:04;;;;;;;11.63;8.03;;;;;;;10.14;61.89;102588.28;6121738;23;20161;-65
2021/10/24 00:56:29;;;;;;;12.13;7.90;;;;;;;10.46;62.23;102639.25;6121649;23;20154;-65
2021/10/24 00:58:55;;;;;;;10.23;7.80;;;;;;;10.38;62.60;102645.09;6120923;23;20503;-65
2021/10/24 01:01:21;;;;;;;9.70;7.57;;;;;;;10.30;62.07;102647.00;6120504;23;20229;-65
2021/10/24 01:03:46;;;;;;;10.83;7.20;;;;;;;10.10;61.37;102595.75;6121726;23;20159;-65
2021/10/24 01:06:11;;;;;;;8.70;6.70;;;;;;;10.29;60.45;102628.00;6095966;23;20373;-65
2021/10/24 01:08:37;;;;;;;10.87;6.80;;;;;;;10.29;60.82;102642.66;6120986;23;20261;-65
2021/10/24 01:11:04;;;;;;;9.90;6.30;;;;;;;9.94;61.10;102586.88;6120653;23;20150;-65
2021/10/24 01:13:32;;;;;;;9.03;7.13;;;;;;;10.23;61.46;102652.50;6121459;23;20155;-65
2021/10/24 01:16:15;;;;;;;11.00;6.90;;;;;;;10.23;61.52;102648.94;6095450;23;20169;-65
2021/10/24 01:18:42;;;;;;;11.67;7.03;;;;;;;9.91;61.68;102603.47;6120556;23;20237;-65
2021/10/24 01:21:07;;;;;;;10.37;7.20;;;;;;;10.22;61.83;102642.59;6121125;23;20233;-65
2021/10/24 01:23:33;;;;;;;8.23;6.97;;;;;;;10.17;62.02;102642.13;6094688;23;20621;-65
2021/10/24 01:25:59;;;;;;;10.67;6.97;;;;;;;10.17;62.06;102645.72;6121978;23;20158;-65
2021/10/24 01:28:26;;;;;;;11.53;7.30;;;;;;;10.12;62.02;102639.72;6120774;23;20512;-65
2021/10/24 01:30:52;;;;;;;9.30;6.60;;;;;;;10.04;62.30;102635.28;6121199;23;20154;-65
2021/10/24 01:33:19;;;;;;;10.50;7.40;;;;;;;9.95;62.23;102632.00;6120747;23;20225;-65
2021/10/24 01:36:00;;;;;;;9.37;7.23;;;;;;;9.88;62.34;102637.44;6121823;23;20157;-65
2021/10/24 01:38:27;;;;;;;9.03;7.47;;;;;;;9.88;62.44;102652.09;6120545;23;20573;-65
2021/10/24 01:40:55;;;;;;;9.47;7.27;;;;;;;9.92;62.59;102644.63;6120878;23;20151;-65
2021/10/24 01:43:21;;;;;;;13.07;7.13;;;;;;;9.90;62.28;102644.19;6121103;23;20609;-65
2021/10/24 01:45:48;;;;;;;8.63;6.93;;;;;;;9.58;62.17;102604.28;6120980;23;20623;-65
2021/10/24 01:48:15;;;;;;;10.17;6.70;;;;;;;9.83;61.87;102646.91;6094647;23;20367;-65
2021/10/24 01:50:40;;;;;;;10.07;6.50;;;;;;;9.83;61.26;102646.09;6120965;23;20166;-65
2021/10/24 01:53:06;;;;;;;8.13;6.10;;;;;;;9.82;60.60;102653.63;6121320;23;20168;-65
2021/10/24 01:55:32;;;;;;;8.27;5.73;;;;;;;9.46;60.03;102573.28;6094401;23;20165;-65
2021/10/24 01:57:58;;;;;;;10.20;6.10;;;;;;;9.86;60.11;102648.13;6120247;23;20157;-65
2021/10/24 02:00:25;;;;;;;8.80;5.97;;;;;;;9.69;60.67;102646.72;6120793;23;20185;-65
2021/10/24 02:02:51;;;;;;;8.20;6.20;;;;;;;9.40;61.27;102594.19;6121528;23;20171;-65
2021/10/24 02:05:17;;;;;;;10.77;6.20;;;;;;;9.75;61.34;102648.00;6120624;23;20162;-65
2021/10/24 02:07:43;;;;;;;10.50;6.33;;;;;;;9.65;61.29;102648.69;6120755;23;20155;-66
2021/10/24 02:10:12;;;;;;;11.07;6.57;;;;;;;9.61;61.33;102639.53;6120528;23;20545;-65
2021/10/24 02:12:37;;;;;;;9.07;6.53;;;;;;;9.63;61.78;102653.78;6121299;23;20160;-65
2021/10/24 02:15:04;;;;;;;10.83;6.90;;;;;;;9.61;62.00;102660.88;6121018;23;20157;-66
2021/10/24 02:17:30;;;;;;;10.43;6.60;;;;;;;9.57;62.04;102655.28;6120217;23;20163;-65
2021/10/24 02:19:55;;;;;;;10.00;7.20;;;;;;;9.42;62.44;102636.09;6120404;23;20154;-65
2021/10/24 02:22:21;;;;;;;10.20;7.20;;;;;;;9.55;62.74;102671.50;6121258;23;20660;-65
2021/10/24 02:24:46;;;;;;;9.73;7.00;;;;;;;9.10;62.97;102621.88;6120684;23;20197;-65
2021/10/24 02:27:12;;;;;;;10.37;7.27;;;;;;;9.43;63.47;102663.41;6120209;23;20163;-65
2021/10/24 02:29:38;;;;;;;7.93;6.97;;;;;;;9.41;63.60;102678.78;6120862;23;20185;-65
2021/10/24 02:32:04;;;;;;;8.70;7.23;;;;;;;9.26;63.94;102680.56;6120669;23;20702;-65
2021/10/24 02:34:29;;;;;;;9.57;7.73;;;;;;;9.40;63.78;102693.81;6122710;23;20159;-65
2021/10/24 02:36:55;;;;;;;8.63;6.83;;;;;;;9.24;63.29;102676.59;6122152;23;20161;-65
2021/10/24 02:39:21;;;;;;;13.63;7.77;;;;;;;9.35;63.14;102689.41;6122477;23;20177;-66
2021/10/24 02:41:47;;;;;;;9.73;7.60;;;;;;;9.47;62.92;102693.91;6122284;23;20635;-65
2021/10/24 02:44:13;;;;;;;10.27;7.67;;;;;;;9.51;62.93;102700.28;6123302;23;20164;-65
2021/10/24 02:46:39;;;;;;;12.60;7.80;;;;;;;9.36;62.90;102681.88;6123284;23;20623;-65
2021/10/24 02:49:05;;;;;;;9.77;7.20;;;;;;;9.41;63.03;102693.44;6121212;23;20180;-65
2021/10/24 02:51:31;;;;;;;9.73;7.50;;;;;;;9.45;63.13;102704.56;6122527;23;20164;-65
2021/10/24 02:53:57;;;;;;;10.83;7.13;;;;;;;9.46;62.87;102704.19;6122794;23;20181;-65
2021/10/24 02:56:22;;;;;;;11.30;7.83;;;;;;;9.40;63.44;102702.91;6122937;23;20229;-65
2021/10/24 02:58:48;;;;;;;11.77;8.23;;;;;;;9.18;63.18;102675.31;6120852;23;20150;-65
2021/10/24 03:01:13;;;;;;;11.17;8.13;;;;;;;8.99;63.18;102654.09;6122562;23;20211;-65
2021/10/24 03:03:38;;;;;;;11.17;8.17;;;;;;;9.29;63.45;102701.16;6122966;23;20157;-65
2021/10/24 03:06:04;;;;;;;10.40;7.57;;;;;;;9.23;63.98;102702.66;6122748;23;20619;-65
2021/10/24 03:08:29;;;;;;;12.47;8.07;;;;;;;9.21;63.82;102708.56;6121802;23;20157;-66
2021/10/24 03:10:55;;;;;;;12.70;7.47;;;;;;;9.16;63.93;102700.59;6121514;23;20165;-65
2021/10/24 03:13:21;;;;;;;10.87;7.60;;;;;;;8.95;63.88;102669.84;6123189;23;20599;-65
2021/10/24 03:15:46;;;;;;;11.63;8.07;;;;;;;8.49;64.65;102613.03;6122761;23;20156;-65
2021/10/24 03:18:12;;;;;;;10.67;7.43;;;;;;;9.04;64.44;102705.53;6121670;23;20502;-65
2021/10/24 03:20:37;;;;;;;12.97;7.73;;;;;;;9.02;64.28;102716.19;6121216;23;20154;-65
2021/10/24 03:23:03;;;;;;;11.93;8.10;;;;;;;8.91;64.25;102702.16;6122846;23;20155;-65
2021/10/24 03:25:28;;;;;;;9.53;7.27;;;;;;;8.96;64.46;102706.59;6122583;23;20632;-65
2021/10/24 03:27:54;;;;;;;11.50;8.30;;;;;;;8.89;64.58;102714.78;6122003;23;20209;-65
2021/10/24 03:30:19;;;;;;;12.23;7.80;;;;;;;8.85;64.21;102720.25;6121035;23;20237;-65
2021/10/24 03:32:45;;;;;;;12.07;7.57;;;;;;;8.85;64.63;102713.91;6122524;23;20602;-65
2021/10/24 03:35:10;;;;;;;12.40;7.77;;;;;;;8.87;64.21;102726.19;6122846;23;20217;-65
2021/10/24 03:37:36;;;;;;;11.93;7.50;;;;;;;8.82;63.80;102722.97;6121954;23;20186;-65
2021/10/24 03:40:01;;;;;;;9.67;7.27;;;;;;;8.85;63.24;102731.31;6121369;23;20182;-65
2021/10/24 03:42:27;;;;;;;8.93;7.23;;;;;;;8.90;63.00;102728.22;6095691;23;20501;-65
2021/10/24 03:44:53;;;;;;;10.27;7.40;;;;;;;8.65;63.11;102698.56;6122246;23;20185;-65
2021/10/24 03:47:20;;;;;;;9.03;7.03;;;;;;;8.84;63.08;102717.84;6096327;23;20612;-65
2021/10/24 03:49:45;;;;;;;12.50;7.87;;;;;;;8.34;63.23;102630.53;6096014;23;20534;-65
2021/10/24 03:52:11;;;;;;;11.30;7.50;;;;;;;8.69;63.29;102693.91;6121575;23;20154;-65
2021/10/24 03:54:36;;;;;;;9.43;7.53;;;;;;;8.76;63.59;102699.56;6122450;23;20207;-64
2021/10/24 03:57:02;;;;;;;9.97;7.20;;;;;;;8.20;63.88;102624.00;6122449;23;20169;-65
2021/10/24 03:59:28;;;;;;;10.13;7.20;;;;;;;8.68;63.79;102725.47;6121564;23;20560;-65
2021/10/24 04:01:53;;;;;;;10.33;7.00;;;;;;;8.61;63.84;102719.84;6121170;23;20230;-65
2021/10/24 04:04:19;;;;;;;12.30;7.20;;;;;;;8.56;63.71;102718.16;6122934;23;20188;-65
2021/10/24 04:06:44;;;;;;;10.13;7.07;;;;;;;8.49;63.81;102728.28;6122413;23;20476;-65
2021/10/24 04:09:10;;;;;;;12.07;7.03;;;;;;;8.43;64.03;102721.47;6121315;23;20190;-65
2021/10/24 04:11:36;;;;;;;11.53;7.10;;;;;;;8.41;63.74;102718.28;6121937;23;20653;-65
2021/10/24 04:14:02;;;;;;;8.43;6.30;;;;;;;8.39;63.09;102720.59;6121207;23;20157;-65
2021/10/24 04:16:28;;;;;;;8.47;6.20;;;;;;;8.38;62.83;102706.00;6122260;23;20494;-65
2021/10/24 04:18:53;;;;;;;10.97;6.00;;;;;;;8.41;62.39;102715.53;6121284;23;20156;-65
2021/10/24 04:21:19;;;;;;;9.30;6.20;;;;;;;8.14;62.78;102675.13;6121804;23;20174;-65
2021/10/24 04:23:44;;;;;;;7.73;6.20;;;;;;;8.24;62.91;102699.41;6121255;23;20157;-65
2021/10/24 04:26:10;;;;;;;9.63;6.23;;;;;;;7.88;62.88;102645.44;6121959;23;20160;-65
2021/10/24 04:28:35;;;;;;;10.57;6.20;;;;;;;8.16;63.02;102681.09;6095326;23;20162;-65
2021/10/24 04:31:01;;;;;;;12.63;6.20;;;;;;;8.46;62.45;102718.00;6121534;23;20179;-65
2021/10/24 04:33:26;;;;;;;10.57;6.33;;;;;;;7.89;62.91;102660.06;6096260;23;20205;-65
2021/10/24 04:35:52;;;;;;;12.23;6.33;;;;;;;8.03;62.99;102688.75;6120932;23;20157;-65
2021/10/24 04:38:17;;;;;;;9.13;5.97;;;;;;;8.35;63.21;102742.66;6120891;23;20151;-65
2021/10/24 04:40:43;;;;;;;9.43;5.77;;;;;;;8.41;62.91;102740.41;6121572;23;20187;-65
2021/10/24 04:43:16;;;;;;;8.40;6.03;;;;;;;8.03;62.96;102697.03;6122032;23;20162;-66
2021/10/24 04:45:42;;;;;;;11.57;6.53;;;;;;;8.36;62.77;102741.47;6121343;23;20147;-65
2021/10/24 04:48:09;;;;;;;9.60;6.23;;;;;;;8.37;62.98;102767.97;6120893;23;20154;-65
2021/10/24 04:50:34;;;;;;;9.10;6.00;;;;;;;8.39;63.03;102757.34;6121226;23;20195;-65
2021/10/24 04:53:05;;;;;;;11.80;6.20;;;;;;;8.41;62.82;102757.75;6122135;23;20180;-65
2021/10/24 04:55:30;;;;;;;8.00;6.37;;;;;;;8.42;63.12;102761.31;6120834;23;20252;-65
2021/10/24 04:57:56;;;;;;;9.93;6.70;;;;;;;8.21;62.58;102758.94;6120731;23;20542;-65
2021/10/24 05:00:21;;;;;;;9.87;6.50;;;;;;;8.21;63.41;102752.63;6095164;23;20156;-65
2021/10/24 05:02:46;;;;;;;8.23;6.37;;;;;;;8.33;62.92;102763.53;6121893;23;20155;-65
2021/10/24 05:05:12;;;;;;;9.50;6.40;;;;;;;8.00;63.10;102728.13;6122138;23;20161;-65
2021/10/24 05:07:38;;;;;;;12.70;6.97;;;;;;;7.86;63.37;102702.19;6120375;23;20156;-65
2021/10/24 05:10:04;;;;;;;8.50;6.50;;;;;;;8.30;63.26;102783.59;6120868;23;20211;-65
2021/10/24 05:12:30;;;;;;;8.93;6.30;;;;;;;7.98;62.99;102747.03;6121943;23;20623;-65
2021/10/24 05:14:55;;;;;;;11.10;6.60;;;;;;;8.26;62.99;102780.75;6122167;23;20150;-65
2021/10/24 05:17:21;;;;;;;12.53;7.00;;;;;;;8.33;63.57;102782.84;6120497;23;20155;-65
2021/10/24 05:19:46;;;;;;;9.63;7.20;;;;;;;8.24;63.73;102783.09;6120647;23;20154;-65
2021/10/24 05:22:12;;;;;;;10.20;6.80;;;;;;;8.17;63.42;102780.16;6121496;23;20179;-65
2021/10/24 05:24:37;;;;;;;8.73;6.10;;;;;;;8.24;63.51;102798.84;6121668;23;20155;-65
2021/10/24 05:27:03;;;;;;;12.27;7.40;;;;;;;8.15;63.62;102788.00;6121257;23;20603;-64
2021/10/24 05:29:29;;;;;;;9.90;6.93;;;;;;;8.21;63.75;102796.84;6119990;23;20352;-65
2021/10/24 05:31:54;;;;;;;9.40;6.53;;;;;;;8.28;63.79;102796.97;6120703;23;20200;-65
2021/10/24 05:34:20;;;;;;;14.90;7.23;;;;;;;8.33;63.47;102800.25;6095645;23;20254;-65
2021/10/24 05:36:45;;;;;;;8.23;6.73;;;;;;;8.39;63.65;102804.31;6122137;23;20291;-64
2021/10/24 05:39:11;;;;;;;9.70;6.50;;;;;;;8.45;63.08;102805.59;6119716;23;20147;-65
2021/10/24 05:41:37;;;;;;;9.57;6.13;;;;;;;8.52;63.13;102822.34;6120730;23;20153;-65
2021/10/24 05:44:02;;;;;;;8.20;6.03;;;;;;;8.46;62.85;102821.00;6121584;23;20180;-65
2021/10/24 05:49:12;;;;;;;11.53;6.90;;;;;;;8.43;63.00;102812.66;6119615;23;20276;-65
2021/10/24 05:51:39;;;;;;;9.70;6.40;;;;;;;8.54;63.07;102820.00;6121116;23;20154;-65
2021/10/24 05:54:05;;;;;;;10.23;6.83;;;;;;;8.65;62.83;102837.56;6121239;23;20157;-65
2021/10/24 05:56:30;;;;;;;9.07;6.60;;;;;;;8.71;62.55;102841.63;6121852;23;20152;-65
2021/10/24 05:58:56;;;;;;;8.80;6.60;;;;;;;8.80;62.40;102844.16;6119990;23;20205;-65
2021/10/24 06:01:21;;;;;;;11.33;6.47;;;;;;;8.77;62.47;102836.63;6120168;23;20497;-65
2021/10/24 06:03:47;;;;;;;9.70;6.50;;;;;;;8.61;62.40;102791.69;6121361;23;20158;-65
2021/10/24 06:06:12;;;;;;;11.07;6.77;;;;;;;8.96;62.08;102842.91;6121616;23;20163;-65
2021/10/24 06:08:38;;;;;;;9.73;5.90;;;;;;;8.51;61.73;102767.44;6120418;23;20163;-65
2021/10/24 06:11:18;;;;;;;9.87;6.30;;;;;;;9.04;61.72;102833.56;6119694;23;20155;-64
2021/10/24 06:13:45;;;;;;;10.53;6.00;;;;;;;8.94;61.30;102800.19;6121446;23;20140;-65
2021/10/24 06:16:10;;;;;;;8.93;6.53;;;;;;;8.84;61.75;102786.97;6121324;23;20156;-65
2021/10/24 06:18:39;;;;;;;8.77;6.30;;;;;;;9.23;61.37;102827.94;6120433;23;20616;-65
2021/10/24 06:21:06;;;;;;;9.77;6.30;;;;;;;9.42;60.55;102852.78;6093644;23;20223;-65
2021/10/24 06:23:32;;;;;;;9.23;6.27;;;;;;;9.00;60.46;102776.56;6121265;23;20153;-65
2021/10/24 06:25:57;;;;;;;9.87;5.70;;;;;;;9.21;59.87;102802.63;6121164;23;20151;-65
2021/10/24 06:28:23;;;;;;;7.40;5.10;;;;;;;9.68;59.02;102854.78;6120219;23;20168;-65
2021/10/24 06:30:48;;;;;;;7.60;4.33;;;;;;;9.81;57.32;102850.59;6120329;23;20266;-65
2021/10/24 06:33:15;;;;;;;8.13;4.13;;;;;;;9.89;56.61;102852.31;6120215;23;20212;-65
2021/10/24 06:35:40;;;;;;;9.43;4.03;;;;;;;9.99;56.31;102859.97;6121373;23;20438;-65
2021/10/24 06:38:06;;;;;;;7.30;4.17;;;;;;;10.10;55.66;102872.03;6120343;23;20378;-65
2021/10/24 06:40:31;;;;;;;7.27;3.80;;;;;;;10.23;55.38;102871.44;6120737;23;20156;-65
2021/10/24 06:42:57;;;;;;;5.17;3.70;;;;;;;10.28;54.29;102873.06;6120235;23;20161;-65
2021/10/24 06:45:25;;;;;;;6.83;3.97;;;;;;;10.11;53.91;102834.84;6121375;23;20157;-65
2021/10/24 06:47:51;;;;;;;8.40;4.20;;;;;;;10.49;53.65;102884.41;6094013;23;20170;-65
2021/10/24 06:50:16;;;;;;;7.40;4.03;;;;;;;10.57;53.26;102886.09;6120436;23;20188;-65
2021/10/24 06:52:42;;;;;;;8.93;4.07;;;;;;;10.68;53.43;102876.75;6120575;23;20153;-65
2021/10/24 06:55:08;;;;;;;8.50;4.17;;;;;;;10.72;52.20;102880.34;6120914;23;20233;-65
2021/10/24 06:57:54;;;;;;;7.90;3.37;;;;;;;10.91;51.05;102882.16;6121106;23;20637;-65
2021/10/24 07:00:21;;;;;;;7.00;3.50;;;;;;;10.53;51.08;102821.50;6120007;23;20597;-65
2021/10/24 07:02:47;;;;;;;5.77;3.07;;;;;;;11.02;50.53;102883.03;6121094;23;20158;-65
2021/10/24 07:05:13;;;;;;;6.27;2.93;;;;;;;11.09;49.42;102888.66;6094364;23;20576;-65
2021/10/24 07:07:40;;;;;;;8.03;3.00;;;;;;;11.12;49.12;102893.47;6120483;23;20154;-65
2021/10/24 07:10:06;;;;;;;5.80;3.00;;;;;;;11.11;48.51;102887.09;6120314;23;20182;-65
2021/10/24 07:12:32;;;;;;;6.03;2.90;;;;;;;11.14;48.85;102896.63;6120686;23;20154;-65
2021/10/24 07:14:58;;;;;;;6.13;2.87;;;;;;;11.17;48.34;102890.34;6120092;23;20242;-65
2021/10/24 07:17:23;;;;;;;5.53;2.60;;;;;;;11.23;48.16;102889.59;6120751;23;20155;-65
2021/10/24 07:19:49;;;;;;;4.93;2.03;;;;;;;11.05;48.94;102851.75;6120410;23;20154;-65
2021/10/24 07:22:15;;;;;;;6.77;2.60;;;;;;;11.41;48.22;102898.88;6123107;23;20165;-65
2021/10/24 07:24:41;;;;;;;4.37;2.30;;;;;;;11.38;47.20;102882.19;6122117;23;20158;-65
2021/10/24 07:27:06;;;;;;;5.33;2.23;;;;;;;11.41;46.82;102879.44;6122631;23;20256;-65
2021/10/24 07:29:32;;;;;;;6.20;2.47;;;;;;;11.59;46.46;102890.72;6095422;23;20257;-65
2021/10/24 07:31:57;;;;;;;7.40;2.20;;;;;;;11.51;47.86;102877.94;6122162;23;20201;-66
2021/10/24 07:34:24;;;;;;;5.73;2.13;;;;;;;11.70;46.48;102895.19;6122765;23;20229;-65
2021/10/24 07:36:49;;;;;;;3.27;1.70;;;;;;;11.30;44.20;102830.56;6095543;23;20159;-65
2021/10/24 07:39:15;;;;;;;5.00;1.70;;;;;;;11.70;44.37;102892.41;6119760;23;20503;-66
2021/10/24 07:41:41;;;;;;;4.67;2.10;;;;;;;11.88;45.08;102910.00;6111537;23;20501;-65
2021/10/24 07:44:07;;;;;;;5.83;2.33;;;;;;;11.66;44.09;102843.56;6119435;23;20655;-65
2021/10/24 07:46:34;;;;;;;5.70;1.70;;;;;;;12.08;42.96;102907.75;6120445;23;20537;-65
2021/10/24 07:49:00;;;;;;;5.90;1.60;;;;;;;12.03;42.00;102922.00;6119942;23;20178;-65
2021/10/24 07:51:25;;;;;;;7.00;2.10;;;;;;;12.06;42.49;102908.16;6119424;23;20158;-65
2021/10/24 07:53:52;;;;;;;5.20;2.00;;;;;;;11.73;42.29;102863.84;6114890;23;20155;-66
2021/10/24 07:56:18;;;;;;;4.60;2.30;;;;;;;12.16;42.69;102917.72;6112245;23;20155;-65
2021/10/24 07:58:44;;;;;;;6.30;2.10;;;;;;;12.19;42.47;102916.97;6119045;23;20525;-64
2021/10/24 08:01:10;;;;;;;7.57;2.47;;;;;;;12.22;44.07;102914.19;6093283;23;20163;-65
2021/10/24 08:03:35;;;;;;;4.87;1.63;;;;;;;12.06;42.16;102880.34;6093742;23;20212;-65
2021/10/24 08:06:01;;;;;;;3.33;1.43;;;;;;;12.36;41.85;102916.25;6093150;23;20169;-65
2021/10/24 08:08:27;;;;;;;7.57;2.80;;;;;;;12.31;42.77;102925.78;6118958;23;20161;-65
2021/10/24 08:10:53;;;;;;;5.13;2.37;;;;;;;11.92;42.32;102835.00;6120009;23;20182;-65
2021/10/24 08:13:18;;;;;;;5.13;1.50;;;;;;;12.60;41.61;102921.16;6121701;23;20506;-65
2021/10/24 08:15:47;;;;;;;4.67;1.83;;;;;;;12.24;41.37;102864.53;6120442;23;20506;-65
2021/10/24 08:18:12;;;;;;;3.90;1.80;;;;;;;12.61;41.40;102923.50;6115251;23;20178;-65
2021/10/24 08:20:40;;;;;;;4.37;2.10;;;;;;;12.70;41.70;102923.16;6109722;23;20181;-65
2021/10/24 08:23:05;;;;;;;5.43;1.90;;;;;;;12.45;42.12;102872.19;6119142;23;20162;-66
2021/10/24 08:25:31;;;;;;;3.90;1.77;;;;;;;12.89;41.33;102923.63;6118375;23;20182;-66
2021/10/24 08:27:59;;;;;;;2.90;1.27;;;;;;;12.58;40.39;102870.66;6117430;23;20163;-65
2021/10/24 08:30:25;;;;;;;4.60;1.40;;;;;;;12.81;40.62;102908.09;6118062;23;20194;-66
2021/10/24 08:32:51;;;;;;;5.10;1.90;;;;;;;12.72;39.86;102890.97;6116982;23;20205;-66
2021/10/24 08:35:17;;;;;;;3.67;1.50;;;;;;;12.90;40.40;102911.31;6118052;23;20443;-66
2021/10/24 08:37:43;;;;;;;3.93;1.50;;;;;;;13.14;39.20;102932.88;6118859;23;20228;-66
2021/10/24 08:40:09;;;;;;;4.97;1.60;;;;;;;13.18;40.00;102930.09;6120118;23;20571;-65
2021/10/24 08:42:38;;;;;;;2.83;1.37;;;;;;;13.02;38.39;102901.81;6120845;23;20169;-66
2021/10/24 08:45:05;;;;;;;3.80;1.77;;;;;;;13.08;39.43;102909.41;6094309;23;20343;-65
2021/10/24 08:47:30;;;;;;;4.13;1.47;;;;;;;13.32;38.13;102924.56;6087726;23;20588;-66
2021/10/24 08:49:56;;;;;;;4.17;1.53;;;;;;;13.34;37.63;102941.66;6113597;23;20216;-66
2021/10/24 08:52:23;;;;;;;3.20;1.40;;;;;;;13.26;37.69;102926.13;6120311;23;20221;-66
2021/10/24 08:54:54;;;;;;;2.97;1.50;;;;;;;13.34;39.07;102947.22;6114457;23;20158;-66
2021/10/24 08:57:22;;;;;;;4.83;1.93;;;;;;;13.42;38.46;102937.69;6118033;23;20176;-65
2021/10/24 08:59:47;;;;;;;4.00;1.60;;;;;;;13.21;38.90;102879.19;6113767;23;20164;-65
2021/10/24 09:02:13;;;;;;;3.83;1.40;;;;;;;13.65;38.85;102944.47;6119769;23;20173;-66
2021/10/24 09:04:52;;;;;;;4.27;1.80;;;;;;;13.72;39.18;102943.66;6119692;23;20161;-66
2021/10/24 09:07:19;;;;;;;4.97;1.70;;;;;;;13.71;38.75;102944.84;6092291;23;20157;-66
2021/10/24 09:09:45;;;;;;;4.83;1.57;;;;;;;13.64;38.03;102917.00;6117704;23;20655;-66
2021/10/24 09:12:12;;;;;;;5.10;1.50;;;;;;;13.87;37.66;102940.47;6118512;23;20150;-65
2021/10/24 09:14:41;;;;;;;3.23;1.30;;;;;;;13.94;38.14;102940.47;6117774;23;20158;-65
2021/10/24 09:17:11;;;;;;;3.13;1.43;;;;;;;14.06;37.83;102942.06;6112778;23;20343;-66
2021/10/24 09:19:43;;;;;;;2.53;1.03;;;;;;;14.12;36.53;102944.03;6115066;23;20158;-65
2021/10/24 09:22:26;;;;;;;3.53;1.17;;;;;;;14.22;36.16;102951.63;6119905;23;20237;-66
2021/10/24 09:25:03;;;;;;;2.33;1.20;;;;;;;14.18;36.17;102941.63;6120457;23;20224;-65
2021/10/24 09:27:33;;;;;;;8.33;1.50;;;;;;;14.26;37.08;102940.44;6119912;23;20513;-66
2021/10/24 09:30:31;;;;;;;3.03;1.20;;;;;;;14.22;36.95;102911.78;6118494;23;20526;-66
2021/10/24 09:32:59;;;;;;;4.40;1.10;;;;;;;14.49;35.75;102941.56;6109204;23;20216;-66
2021/10/24 09:35:44;;;;;;;3.47;1.20;;;;;;;14.70;36.01;102940.72;6120406;23;20625;-66
2021/10/24 09:38:17;;;;;;;5.20;1.87;;;;;;;14.72;35.80;102933.53;6119735;23;20143;-66
2021/10/24 09:40:48;;;;;;;4.73;1.60;;;;;;;14.72;34.69;102933.53;6118793;23;20217;-66
2021/10/24 09:43:20;;;;;;;4.30;1.67;;;;;;;14.83;35.91;102930.66;6114355;23;20154;-66
2021/10/24 09:45:49;;;;;;;6.03;1.47;;;;;;;14.60;35.47;102880.94;6118818;23;20168;-66
2021/10/24 09:48:17;;;;;;;2.60;1.10;;;;;;;14.87;34.35;102926.69;6117406;23;20687;-66
2021/10/24 09:50:52;;;;;;;3.53;1.33;;;;;;;14.80;34.24;102948.25;6092252;23;20197;-66
2021/10/24 09:53:21;;;;;;;4.10;1.13;;;;;;;14.95;35.34;102939.38;6093995;23;20157;-66
2021/10/24 09:56:01;;;;;;;2.47;1.17;;;;;;;15.11;33.99;102947.28;6118635;23;20628;-65
2021/10/24 09:58:28;;;;;;;3.43;1.20;;;;;;;15.23;34.86;102941.22;6118828;23;20138;-65
2021/10/24 10:00:54;;;;;;;2.70;1.30;;;;;;;14.98;33.77;102893.09;6118619;23;20601;-66
2021/10/24 10:03:21;;;;;;;3.10;1.20;;;;;;;15.31;33.88;102937.19;6119572;23;20511;-66
2021/10/24 10:05:46;;;;;;;3.17;1.33;;;;;;;15.11;34.58;102924.94;6119359;23;20239;-65
2021/10/24 10:08:13;;;;;;;4.77;1.17;;;;;;;15.15;34.45;102942.47;6118381;23;20696;-65
2021/10/24 10:10:53;;;;;;;4.93;1.10;;;;;;;15.13;34.11;102937.31;6088771;23;20588;-66
2021/10/24 10:13:23;;;;;;;3.60;1.47;;;;;;;15.21;34.74;102940.84;6117723;23;20138;-65
2021/10/24 10:15:50;;;;;;;2.80;1.27;;;;;;;15.31;34.87;102940.75;6118351;23;20162;-66
2021/10/24 10:18:17;;;;;;;2.60;1.10;;;;;;;15.40;34.10;102943.94;6119198;23;20237;-66
2021/10/24 10:20:53;;;;;;;2.93;1.30;;;;;;;15.39;34.51;102938.75;6119505;23;20157;-65
2021/10/24 10:23:23;;;;;;;3.17;1.67;;;;;;;15.26;34.44;102913.25;6119281;23;20638;-66
2021/10/24 10:25:50;;;;;;;4.67;1.67;;;;;;;15.50;35.01;102939.47;6119339;23;20571;-66
2021/10/24 10:28:44;;;;;;;3.80;1.40;;;;;;;15.67;34.92;102938.53;6119445;23;20217;-65
2021/10/24 10:31:14;;;;;;;3.43;1.13;;;;;;;15.68;34.68;102934.53;6118837;23;20225;-66
2021/10/24 10:33:40;;;;;;;4.97;1.40;;;;;;;15.75;34.34;102937.25;6118317;23;20684;-66
2021/10/24 10:36:08;;;;;;;3.07;1.40;;;;;;;15.78;34.84;102931.63;6118032;23;20570;-66
2021/10/24 10:38:42;;;;;;;3.83;1.30;;;;;;;15.80;35.93;102903.28;6118958;23;20233;-65
2021/10/24 10:41:09;;;;;;;3.87;1.40;;;;;;;16.20;34.01;102941.63;6117351;23;20139;-66
2021/10/24 10:43:35;;;;;;;4.10;1.33;;;;;;;16.24;34.24;102936.81;6119047;23;20491;-65
2021/10/24 10:46:04;;;;;;;5.00;1.40;;;;;;;16.10;34.33;102934.94;6118568;23;20150;-66
2021/10/24 10:48:36;;;;;;;3.27;1.50;;;;;;;15.93;35.39;102877.16;6115757;23;20154;-65
2021/10/24 10:51:25;;;;;;;4.27;1.30;;;;;;;16.58;34.68;102920.03;6116142;23;20609;-66
2021/10/24 10:54:01;;;;;;;4.20;1.70;;;;;;;16.66;34.39;102920.31;6103469;23;20173;-66
2021/10/24 10:56:28;;;;;;;2.47;1.40;;;;;;;16.70;34.17;102923.88;6110943;23;20581;-65
2021/10/24 10:58:59;;;;;;;4.63;1.70;;;;;;;16.60;34.02;102905.19;6120665;23;20222;-65
2021/10/24 11:01:28;;;;;;;3.50;1.40;;;;;;;16.84;34.63;102915.28;6121110;23;20155;-65
2021/10/24 11:04:16;;;;;;;3.30;1.60;;;;;;;17.03;34.50;102908.22;6116638;23;20151;-66
2021/10/24 11:06:57;;;;;;;2.90;1.60;;;;;;;17.08;34.72;102888.13;6113773;23;20147;-65
2021/10/24 11:09:45;;;;;;;3.33;1.50;;;;;;;17.33;35.74;102913.78;6119976;23;20854;-66
2021/10/24 11:12:38;;;;;;;4.73;1.80;;;;;;;17.45;35.78;102915.22;6120759;23;20168;-66
2021/10/24 11:15:16;;;;;;;4.17;1.70;;;;;;;17.49;35.18;102907.56;6104922;23;20211;-66
2021/10/24 11:17:45;;;;;;;4.40;1.90;;;;;;;17.53;34.35;102915.47;6094208;23;20152;-66
2021/10/24 11:20:38;;;;;;;3.63;1.80;;;;;;;17.51;34.19;102908.69;6120528;23;20160;-66
2021/10/24 11:23:06;;;;;;;3.23;1.40;;;;;;;17.57;34.56;102907.03;6108928;23;20177;-65
2021/10/24 11:25:37;;;;;;;4.57;1.83;;;;;;;17.55;34.02;102906.63;6120799;23;20294;-64
2021/10/24 11:28:08;;;;;;;4.13;1.93;;;;;;;17.21;35.12;102870.31;6093512;23;20149;-64
2021/10/24 11:30:36;;;;;;;3.00;1.67;;;;;;;17.40;36.04;102874.44;6119902;23;20232;-64